sensor_id;sensor_type;location;lat;lon;timestamp;temperature;humidity
40374;DHT22;26079;45.958;12.492;2022-07-06T00:01:54;21.30;99.90
40374;DHT22;26079;45.958;12.492;2022-07-06T00:04:20;21.30;99.90
40374;DHT22;26079;45.958;12.492;2022-07-06T00:06:46;21.40;99.90
40374;DHT22;26079;45.958;12.492;2022-07-06T00:09:12;21.30;99.90
40374;DHT22;26079;45.958;12.492;2022-07-06T00:11:38;21.30;99.90
40374;DHT22;26079;45.958;12.492;2022-07-06T00:14:04;21.30;99.90
40374;DHT22;26079;45.958;12.492;2022-07-06T00:16:30;21.20;99.90
40374;DHT22;26079;45.958;12.492;2022-07-06T00:18:56;21.20;99.90
40374;DHT22;26079;45.958;12.492;2022-07-06T00:21:21;21.10;99.90
40374;DHT22;26079;45.958;12.492;2022-07-06T00:23:47;21.00;99.90
40374;DHT22;26079;45.958;12.492;2022-07-06T00:26:13;20.90;99.90
40374;DHT22;26079;45.958;12.492;2022-07-06T00:28:39;20.80;99.90
40374;DHT22;26079;45.958;12.492;2022-07-06T00:31:04;20.80;99.90
40374;DHT22;26079;45.958;12.492;2022-07-06T00:33:31;20.70;99.90
40374;DHT22;26079;45.958;12.492;2022-07-06T00:35:57;20.80;99.90
40374;DHT22;26079;45.958;12.492;2022-07-06T00:38:23;20.80;99.90
40374;DHT22;26079;45.958;12.492;2022-07-06T00:40:49;20.80;99.90
40374;DHT22;26079;45.958;12.492;2022-07-06T00:43:14;20.70;99.90
40374;DHT22;26079;45.958;12.492;2022-07-06T00:45:40;20.50;99.90
40374;DHT22;26079;45.958;12.492;2022-07-06T00:48:06;20.40;99.90
40374;DHT22;26079;45.958;12.492;2022-07-06T00:50:33;20.30;99.90
40374;DHT22;26079;45.958;12.492;2022-07-06T00:53:00;20.30;99.90
40374;DHT22;26079;45.958;12.492;2022-07-06T00:55:29;20.30;99.90
40374;DHT22;26079;45.958;12.492;2022-07-06T00:57:55;20.40;99.90
40374;DHT22;26079;45.958;12.492;2022-07-06T01:00:24;20.40;99.90
40374;DHT22;26079;45.958;12.492;2022-07-06T01:02:50;20.40;99.90
40374;DHT22;26079;45.958;12.492;2022-07-06T01:05:17;20.40;99.90
40374;DHT22;26079;45.958;12.492;2022-07-06T01:07:44;20.40;99.90
40374;DHT22;26079;45.958;12.492;2022-07-06T01:10:12;20.40;99.90
40374;DHT22;26079;45.958;12.492;2022-07-06T01:12:39;20.40;99.90
40374;DHT22;26079;45.958;12.492;2022-07-06T01:15:08;20.30;99.90
40374;DHT22;26079;45.958;12.492;2022-07-06T01:17:34;20.20;99.90
40374;DHT22;26079;45.958;12.492;2022-07-06T01:20:16;20.10;99.90
40374;DHT22;26079;45.958;12.492;2022-07-06T01:22:45;20.10;99.90
40374;DHT22;26079;45.958;12.492;2022-07-06T01:25:12;20.10;99.90
40374;DHT22;26079;45.958;12.492;2022-07-06T01:27:39;20.10;99.90
40374;DHT22;26079;45.958;12.492;2022-07-06T01:30:07;20.10;99.90
40374;DHT22;26079;45.958;12.492;2022-07-06T01:32:33;20.10;99.90
40374;DHT22;26079;45.958;12.492;2022-07-06T01:35:00;20.10;99.90
40374;DHT22;26079;45.958;12.492;2022-07-06T01:37:26;20.20;99.90
40374;DHT22;26079;45.958;12.492;2022-07-06T01:39:51;20.30;99.90
40374;DHT22;26079;45.958;12.492;2022-07-06T01:42:17;20.40;99.90
40374;DHT22;26079;45.958;12.492;2022-07-06T01:44:43;20.50;99.90
40374;DHT22;26079;45.958;12.492;2022-07-06T01:47:10;20.40;99.90
40374;DHT22;26079;45.958;12.492;2022-07-06T01:49:36;20.40;99.90
40374;DHT22;26079;45.958;12.492;2022-07-06T01:52:02;20.40;99.90
40374;DHT22;26079;45.958;12.492;2022-07-06T01:54:28;20.40;99.90
40374;DHT22;26079;45.958;12.492;2022-07-06T01:56:54;20.40;99.90
40374;DHT22;26079;45.958;12.492;2022-07-06T01:59:20;20.40;99.90
40374;DHT22;26079;45.958;12.492;2022-07-06T02:01:45;20.30;99.90
40374;DHT22;26079;45.958;12.492;2022-07-06T02:04:11;20.30;99.90
40374;DHT22;26079;45.958;12.492;2022-07-06T02:06:37;20.30;99.90
40374;DHT22;26079;45.958;12.492;2022-07-06T02:09:02;20.20;99.90
40374;DHT22;26079;45.958;12.492;2022-07-06T02:11:28;20.20;99.90
40374;DHT22;26079;45.958;12.492;2022-07-06T02:13:54;20.20;99.90
40374;DHT22;26079;45.958;12.492;2022-07-06T02:16:20;20.20;99.90
40374;DHT22;26079;45.958;12.492;2022-07-06T02:18:45;20.20;99.90
40374;DHT22;26079;45.958;12.492;2022-07-06T02:21:11;20.20;99.90
40374;DHT22;26079;45.958;12.492;2022-07-06T02:23:37;20.20;99.90
40374;DHT22;26079;45.958;12.492;2022-07-06T02:26:02;20.20;99.90
40374;DHT22;26079;45.958;12.492;2022-07-06T02:28:29;20.20;99.90
40374;DHT22;26079;45.958;12.492;2022-07-06T02:30:55;20.20;99.90
40374;DHT22;26079;45.958;12.492;2022-07-06T02:33:21;20.10;99.90
40374;DHT22;26079;45.958;12.492;2022-07-06T02:35:46;20.10;99.90
40374;DHT22;26079;45.958;12.492;2022-07-06T02:38:12;20.10;99.90
40374;DHT22;26079;45.958;12.492;2022-07-06T02:40:38;20.10;99.90
40374;DHT22;26079;45.958;12.492;2022-07-06T02:43:04;20.10;99.90
40374;DHT22;26079;45.958;12.492;2022-07-06T02:45:31;20.20;99.90
40374;DHT22;26079;45.958;12.492;2022-07-06T02:47:57;20.20;99.90
40374;DHT22;26079;45.958;12.492;2022-07-06T02:50:26;20.30;99.90
40374;DHT22;26079;45.958;12.492;2022-07-06T02:52:51;20.30;99.90
40374;DHT22;26079;45.958;12.492;2022-07-06T02:55:17;20.30;99.90
40374;DHT22;26079;45.958;12.492;2022-07-06T02:57:43;20.30;99.90
40374;DHT22;26079;45.958;12.492;2022-07-06T03:00:09;20.30;99.90
40374;DHT22;26079;45.958;12.492;2022-07-06T03:02:36;20.30;99.90
40374;DHT22;26079;45.958;12.492;2022-07-06T03:05:02;20.20;99.90
40374;DHT22;26079;45.958;12.492;2022-07-06T03:07:28;20.20;99.90
40374;DHT22;26079;45.958;12.492;2022-07-06T03:09:54;20.10;99.90
40374;DHT22;26079;45.958;12.492;2022-07-06T03:12:19;20.10;99.90
40374;DHT22;26079;45.958;12.492;2022-07-06T03:14:45;20.00;99.90
40374;DHT22;26079;45.958;12.492;2022-07-06T03:17:11;20.00;99.90
40374;DHT22;26079;45.958;12.492;2022-07-06T03:19:37;20.00;99.90
40374;DHT22;26079;45.958;12.492;2022-07-06T03:22:02;20.00;99.90
40374;DHT22;26079;45.958;12.492;2022-07-06T03:24:28;20.00;99.90
40374;DHT22;26079;45.958;12.492;2022-07-06T03:26:54;20.00;99.90
40374;DHT22;26079;45.958;12.492;2022-07-06T03:29:20;20.00;99.90
40374;DHT22;26079;45.958;12.492;2022-07-06T03:31:46;19.90;99.90
40374;DHT22;26079;45.958;12.492;2022-07-06T03:34:12;19.90;99.90
40374;DHT22;26079;45.958;12.492;2022-07-06T03:36:38;19.80;99.90
40374;DHT22;26079;45.958;12.492;2022-07-06T03:39:04;19.70;99.90
40374;DHT22;26079;45.958;12.492;2022-07-06T03:41:30;19.60;99.90
40374;DHT22;26079;45.958;12.492;2022-07-06T03:43:55;19.60;99.90
40374;DHT22;26079;45.958;12.492;2022-07-06T03:46:21;19.60;99.90
40374;DHT22;26079;45.958;12.492;2022-07-06T03:48:47;19.60;99.90
40374;DHT22;26079;45.958;12.492;2022-07-06T03:51:12;19.70;99.90
40374;DHT22;26079;45.958;12.492;2022-07-06T03:53:38;19.70;99.90
40374;DHT22;26079;45.958;12.492;2022-07-06T03:56:04;19.70;99.90
40374;DHT22;26079;45.958;12.492;2022-07-06T03:58:48;19.70;99.90
40374;DHT22;26079;45.958;12.492;2022-07-06T04:01:14;19.70;99.90
40374;DHT22;26079;45.958;12.492;2022-07-06T04:03:39;19.70;99.90
40374;DHT22;26079;45.958;12.492;2022-07-06T04:06:05;19.70;99.90
40374;DHT22;26079;45.958;12.492;2022-07-06T04:08:31;19.70;99.90
40374;DHT22;26079;45.958;12.492;2022-07-06T04:10:57;19.70;99.90
40374;DHT22;26079;45.958;12.492;2022-07-06T04:13:22;19.70;99.90
40374;DHT22;26079;45.958;12.492;2022-07-06T04:15:49;19.70;99.90
40374;DHT22;26079;45.958;12.492;2022-07-06T04:18:14;19.80;99.90
40374;DHT22;26079;45.958;12.492;2022-07-06T04:20:40;19.80;99.90
40374;DHT22;26079;45.958;12.492;2022-07-06T04:23:06;19.80;99.90
40374;DHT22;26079;45.958;12.492;2022-07-06T04:25:31;19.80;99.90
40374;DHT22;26079;45.958;12.492;2022-07-06T04:27:57;19.90;99.90
40374;DHT22;26079;45.958;12.492;2022-07-06T04:30:23;19.90;99.90
40374;DHT22;26079;45.958;12.492;2022-07-06T04:32:48;20.00;99.90
40374;DHT22;26079;45.958;12.492;2022-07-06T04:35:14;20.10;99.90
40374;DHT22;26079;45.958;12.492;2022-07-06T04:37:40;20.10;99.90
40374;DHT22;26079;45.958;12.492;2022-07-06T04:40:06;20.20;99.90
40374;DHT22;26079;45.958;12.492;2022-07-06T04:42:32;20.30;99.90
40374;DHT22;26079;45.958;12.492;2022-07-06T04:44:57;20.30;99.90
40374;DHT22;26079;45.958;12.492;2022-07-06T04:47:23;20.40;99.90
40374;DHT22;26079;45.958;12.492;2022-07-06T04:49:49;20.50;99.90
40374;DHT22;26079;45.958;12.492;2022-07-06T04:52:14;20.60;99.90
40374;DHT22;26079;45.958;12.492;2022-07-06T04:54:40;20.70;99.90
40374;DHT22;26079;45.958;12.492;2022-07-06T04:57:06;20.80;99.90
40374;DHT22;26079;45.958;12.492;2022-07-06T04:59:32;20.90;99.90
40374;DHT22;26079;45.958;12.492;2022-07-06T05:01:57;21.00;99.90
40374;DHT22;26079;45.958;12.492;2022-07-06T05:04:23;21.10;99.90
40374;DHT22;26079;45.958;12.492;2022-07-06T05:06:50;21.10;99.90
40374;DHT22;26079;45.958;12.492;2022-07-06T05:09:15;21.30;99.90
40374;DHT22;26079;45.958;12.492;2022-07-06T05:11:41;21.40;99.90
40374;DHT22;26079;45.958;12.492;2022-07-06T05:14:07;21.50;99.90
40374;DHT22;26079;45.958;12.492;2022-07-06T05:16:33;21.80;99.90
40374;DHT22;26079;45.958;12.492;2022-07-06T05:18:59;22.00;99.90
40374;DHT22;26079;45.958;12.492;2022-07-06T05:21:24;22.10;99.90
40374;DHT22;26079;45.958;12.492;2022-07-06T05:23:50;22.20;96.40
40374;DHT22;26079;45.958;12.492;2022-07-06T05:26:16;22.40;94.90
40374;DHT22;26079;45.958;12.492;2022-07-06T05:28:42;22.80;92.50
40374;DHT22;26079;45.958;12.492;2022-07-06T05:31:07;23.40;91.40
40374;DHT22;26079;45.958;12.492;2022-07-06T05:33:33;23.90;89.00
40374;DHT22;26079;45.958;12.492;2022-07-06T05:35:59;24.80;91.30
40374;DHT22;26079;45.958;12.492;2022-07-06T05:38:25;26.00;86.70
40374;DHT22;26079;45.958;12.492;2022-07-06T05:40:51;27.10;84.20
40374;DHT22;26079;45.958;12.492;2022-07-06T05:43:17;27.80;81.30
40374;DHT22;26079;45.958;12.492;2022-07-06T05:45:43;28.40;80.60
40374;DHT22;26079;45.958;12.492;2022-07-06T05:48:09;29.20;76.70
40374;DHT22;26079;45.958;12.492;2022-07-06T05:50:53;29.50;75.60
40374;DHT22;26079;45.958;12.492;2022-07-06T05:53:19;29.90;76.20
40374;DHT22;26079;45.958;12.492;2022-07-06T05:55:45;30.10;71.70
40374;DHT22;26079;45.958;12.492;2022-07-06T05:58:11;29.30;74.50
40374;DHT22;26079;45.958;12.492;2022-07-06T06:00:36;29.40;76.50
40374;DHT22;26079;45.958;12.492;2022-07-06T06:03:02;29.30;73.70
40374;DHT22;26079;45.958;12.492;2022-07-06T06:05:28;29.60;76.70
40374;DHT22;26079;45.958;12.492;2022-07-06T06:07:54;29.80;75.10
40374;DHT22;26079;45.958;12.492;2022-07-06T06:10:20;29.60;74.50
40374;DHT22;26079;45.958;12.492;2022-07-06T06:12:49;29.70;76.80
40374;DHT22;26079;45.958;12.492;2022-07-06T06:15:15;30.10;75.70
40374;DHT22;26079;45.958;12.492;2022-07-06T06:17:41;30.70;75.50
40374;DHT22;26079;45.958;12.492;2022-07-06T06:20:09;31.30;71.90
40374;DHT22;26079;45.958;12.492;2022-07-06T06:25:15;31.60;69.80
40374;DHT22;26079;45.958;12.492;2022-07-06T06:27:41;31.70;69.10
40374;DHT22;26079;45.958;12.492;2022-07-06T06:30:07;31.80;68.90
40374;DHT22;26079;45.958;12.492;2022-07-06T06:32:33;32.00;69.50
40374;DHT22;26079;45.958;12.492;2022-07-06T06:34:58;32.40;67.00
40374;DHT22;26079;45.958;12.492;2022-07-06T06:37:24;32.40;67.20
40374;DHT22;26079;45.958;12.492;2022-07-06T06:39:50;32.10;65.10
40374;DHT22;26079;45.958;12.492;2022-07-06T06:42:15;32.40;67.90
40374;DHT22;26079;45.958;12.492;2022-07-06T06:44:41;33.10;64.50
40374;DHT22;26079;45.958;12.492;2022-07-06T06:47:06;33.50;64.20
40374;DHT22;26079;45.958;12.492;2022-07-06T06:49:32;33.40;64.10
40374;DHT22;26079;45.958;12.492;2022-07-06T06:51:58;33.40;63.80
40374;DHT22;26079;45.958;12.492;2022-07-06T06:54:23;33.20;63.80
40374;DHT22;26079;45.958;12.492;2022-07-06T06:56:49;33.10;65.20
40374;DHT22;26079;45.958;12.492;2022-07-06T06:59:15;33.40;64.80
40374;DHT22;26079;45.958;12.492;2022-07-06T07:01:40;33.80;62.70
40374;DHT22;26079;45.958;12.492;2022-07-06T07:04:06;33.60;60.50
40374;DHT22;26079;45.958;12.492;2022-07-06T07:06:32;33.20;62.30
40374;DHT22;26079;45.958;12.492;2022-07-06T07:08:58;33.00;63.10
40374;DHT22;26079;45.958;12.492;2022-07-06T07:11:24;32.90;62.70
40374;DHT22;26079;45.958;12.492;2022-07-06T07:13:50;32.80;64.00
40374;DHT22;26079;45.958;12.492;2022-07-06T07:16:15;32.50;63.50
40374;DHT22;26079;45.958;12.492;2022-07-06T07:18:41;32.10;64.70
40374;DHT22;26079;45.958;12.492;2022-07-06T07:21:07;31.60;66.20
40374;DHT22;26079;45.958;12.492;2022-07-06T07:23:32;31.30;64.50
40374;DHT22;26079;45.958;12.492;2022-07-06T07:25:58;31.00;65.90
40374;DHT22;26079;45.958;12.492;2022-07-06T07:28:24;30.50;67.90
40374;DHT22;26079;45.958;12.492;2022-07-06T07:30:49;30.20;68.00
40374;DHT22;26079;45.958;12.492;2022-07-06T07:33:16;29.60;68.80
40374;DHT22;26079;45.958;12.492;2022-07-06T07:35:41;29.20;68.90
40374;DHT22;26079;45.958;12.492;2022-07-06T07:38:07;29.00;69.90
40374;DHT22;26079;45.958;12.492;2022-07-06T07:40:33;28.60;71.30
40374;DHT22;26079;45.958;12.492;2022-07-06T07:42:59;28.70;71.10
40374;DHT22;26079;45.958;12.492;2022-07-06T07:45:25;28.80;73.60
40374;DHT22;26079;45.958;12.492;2022-07-06T07:47:50;28.90;69.50
40374;DHT22;26079;45.958;12.492;2022-07-06T07:50:16;28.70;69.70
40374;DHT22;26079;45.958;12.492;2022-07-06T07:52:43;28.50;70.30
40374;DHT22;26079;45.958;12.492;2022-07-06T07:55:09;28.30;71.10
40374;DHT22;26079;45.958;12.492;2022-07-06T07:57:35;28.20;70.90
40374;DHT22;26079;45.958;12.492;2022-07-06T08:00:01;28.30;70.10
40374;DHT22;26079;45.958;12.492;2022-07-06T08:02:27;28.00;68.90
40374;DHT22;26079;45.958;12.492;2022-07-06T08:04:52;28.00;71.60
40374;DHT22;26079;45.958;12.492;2022-07-06T08:07:18;28.10;70.20
40374;DHT22;26079;45.958;12.492;2022-07-06T08:09:44;28.10;71.50
40374;DHT22;26079;45.958;12.492;2022-07-06T08:12:10;28.20;71.50
40374;DHT22;26079;45.958;12.492;2022-07-06T08:14:35;28.30;69.70
40374;DHT22;26079;45.958;12.492;2022-07-06T08:17:03;28.30;71.30
40374;DHT22;26079;45.958;12.492;2022-07-06T08:19:29;28.40;71.10
40374;DHT22;26079;45.958;12.492;2022-07-06T08:21:56;28.40;69.10
40374;DHT22;26079;45.958;12.492;2022-07-06T08:24:22;28.40;67.60
40374;DHT22;26079;45.958;12.492;2022-07-06T08:26:47;28.50;68.00
40374;DHT22;26079;45.958;12.492;2022-07-06T08:29:13;28.60;67.90
40374;DHT22;26079;45.958;12.492;2022-07-06T08:31:40;28.80;65.20
40374;DHT22;26079;45.958;12.492;2022-07-06T08:34:06;28.80;65.30
40374;DHT22;26079;45.958;12.492;2022-07-06T08:36:32;28.90;64.20
40374;DHT22;26079;45.958;12.492;2022-07-06T08:38:58;28.90;64.90
40374;DHT22;26079;45.958;12.492;2022-07-06T08:41:26;28.80;63.70
40374;DHT22;26079;45.958;12.492;2022-07-06T08:43:53;28.80;64.70
40374;DHT22;26079;45.958;12.492;2022-07-06T08:46:20;28.80;64.40
40374;DHT22;26079;45.958;12.492;2022-07-06T08:48:48;28.90;63.30
40374;DHT22;26079;45.958;12.492;2022-07-06T08:51:14;29.00;61.70
40374;DHT22;26079;45.958;12.492;2022-07-06T08:53:44;29.10;62.30
40374;DHT22;26079;45.958;12.492;2022-07-06T08:56:10;29.20;60.60
40374;DHT22;26079;45.958;12.492;2022-07-06T08:58:37;29.30;62.60
40374;DHT22;26079;45.958;12.492;2022-07-06T09:01:06;29.30;61.40
40374;DHT22;26079;45.958;12.492;2022-07-06T09:03:34;29.40;60.80
40374;DHT22;26079;45.958;12.492;2022-07-06T09:06:02;29.30;59.90
40374;DHT22;26079;45.958;12.492;2022-07-06T09:08:28;29.30;59.30
40374;DHT22;26079;45.958;12.492;2022-07-06T09:10:55;29.40;58.70
40374;DHT22;26079;45.958;12.492;2022-07-06T09:13:20;29.50;59.90
40374;DHT22;26079;45.958;12.492;2022-07-06T09:15:46;29.60;59.50
40374;DHT22;26079;45.958;12.492;2022-07-06T09:18:12;29.70;59.20
40374;DHT22;26079;45.958;12.492;2022-07-06T09:20:37;29.80;59.30
40374;DHT22;26079;45.958;12.492;2022-07-06T09:23:05;29.80;58.30
40374;DHT22;26079;45.958;12.492;2022-07-06T09:25:31;29.70;58.80
40374;DHT22;26079;45.958;12.492;2022-07-06T09:27:58;29.60;57.60
40374;DHT22;26079;45.958;12.492;2022-07-06T09:30:25;29.50;61.10
40374;DHT22;26079;45.958;12.492;2022-07-06T09:32:54;29.70;61.10
40374;DHT22;26079;45.958;12.492;2022-07-06T09:35:36;29.80;59.30
40374;DHT22;26079;45.958;12.492;2022-07-06T09:40:31;29.90;59.00
40374;DHT22;26079;45.958;12.492;2022-07-06T09:43:18;29.90;56.00
40374;DHT22;26079;45.958;12.492;2022-07-06T09:45:50;29.80;56.10
40374;DHT22;26079;45.958;12.492;2022-07-06T09:48:18;29.70;56.00
40374;DHT22;26079;45.958;12.492;2022-07-06T09:50:48;29.70;56.10
40374;DHT22;26079;45.958;12.492;2022-07-06T09:53:17;29.70;56.00
40374;DHT22;26079;45.958;12.492;2022-07-06T09:55:47;29.70;56.80
40374;DHT22;26079;45.958;12.492;2022-07-06T09:58:14;29.80;57.00
40374;DHT22;26079;45.958;12.492;2022-07-06T10:00:44;29.90;55.40
40374;DHT22;26079;45.958;12.492;2022-07-06T10:03:10;29.90;55.90
40374;DHT22;26079;45.958;12.492;2022-07-06T10:05:38;29.70;55.20
40374;DHT22;26079;45.958;12.492;2022-07-06T10:08:05;29.70;56.20
40374;DHT22;26079;45.958;12.492;2022-07-06T10:10:32;29.70;57.70
40374;DHT22;26079;45.958;12.492;2022-07-06T10:12:59;29.70;57.70
40374;DHT22;26079;45.958;12.492;2022-07-06T10:15:29;29.70;56.10
40374;DHT22;26079;45.958;12.492;2022-07-06T10:18:03;29.70;56.70
40374;DHT22;26079;45.958;12.492;2022-07-06T10:20:34;29.60;57.80
40374;DHT22;26079;45.958;12.492;2022-07-06T10:23:03;29.60;57.40
40374;DHT22;26079;45.958;12.492;2022-07-06T10:25:29;29.60;58.10
40374;DHT22;26079;45.958;12.492;2022-07-06T10:27:55;29.60;56.00
40374;DHT22;26079;45.958;12.492;2022-07-06T10:30:22;29.70;58.50
40374;DHT22;26079;45.958;12.492;2022-07-06T10:32:50;29.70;57.60
40374;DHT22;26079;45.958;12.492;2022-07-06T10:35:18;29.60;56.50
40374;DHT22;26079;45.958;12.492;2022-07-06T10:37:45;29.60;56.00
40374;DHT22;26079;45.958;12.492;2022-07-06T10:40:14;29.70;56.60
40374;DHT22;26079;45.958;12.492;2022-07-06T10:43:00;29.90;53.10
40374;DHT22;26079;45.958;12.492;2022-07-06T10:50:37;29.90;54.40
40374;DHT22;26079;45.958;12.492;2022-07-06T10:53:02;30.00;54.70
40374;DHT22;26079;45.958;12.492;2022-07-06T10:55:36;30.40;55.20
40374;DHT22;26079;45.958;12.492;2022-07-06T10:58:03;30.70;53.70
40374;DHT22;26079;45.958;12.492;2022-07-06T11:00:54;30.80;54.40
40374;DHT22;26079;45.958;12.492;2022-07-06T11:06:20;30.80;55.40
40374;DHT22;26079;45.958;12.492;2022-07-06T11:09:00;31.00;55.40
40374;DHT22;26079;45.958;12.492;2022-07-06T11:16:28;31.30;53.20
40374;DHT22;26079;45.958;12.492;2022-07-06T11:21:53;31.10;53.00
40374;DHT22;26079;45.958;12.492;2022-07-06T11:24:23;31.00;53.60
40374;DHT22;26079;45.958;12.492;2022-07-06T11:26:51;30.90;53.60
40374;DHT22;26079;45.958;12.492;2022-07-06T11:29:18;30.90;53.80
40374;DHT22;26079;45.958;12.492;2022-07-06T11:31:47;31.00;53.80
40374;DHT22;26079;45.958;12.492;2022-07-06T11:34:18;31.20;53.50
40374;DHT22;26079;45.958;12.492;2022-07-06T11:36:44;31.40;54.40
40374;DHT22;26079;45.958;12.492;2022-07-06T11:39:09;31.40;53.60
40374;DHT22;26079;45.958;12.492;2022-07-06T11:41:35;31.50;52.80
40374;DHT22;26079;45.958;12.492;2022-07-06T11:44:03;31.40;50.40
40374;DHT22;26079;45.958;12.492;2022-07-06T11:46:31;31.10;51.10
40374;DHT22;26079;45.958;12.492;2022-07-06T11:49:03;31.10;53.60
40374;DHT22;26079;45.958;12.492;2022-07-06T11:51:31;31.30;53.00
40374;DHT22;26079;45.958;12.492;2022-07-06T11:53:59;31.40;52.30
40374;DHT22;26079;45.958;12.492;2022-07-06T11:56:26;31.40;51.30
40374;DHT22;26079;45.958;12.492;2022-07-06T11:58:57;31.40;51.40
40374;DHT22;26079;45.958;12.492;2022-07-06T12:01:25;31.40;51.80
40374;DHT22;26079;45.958;12.492;2022-07-06T12:03:52;31.50;52.00
40374;DHT22;26079;45.958;12.492;2022-07-06T12:06:19;31.50;51.60
40374;DHT22;26079;45.958;12.492;2022-07-06T12:08:51;31.50;50.30
40374;DHT22;26079;45.958;12.492;2022-07-06T12:11:29;31.70;50.80
40374;DHT22;26079;45.958;12.492;2022-07-06T12:13:59;31.70;49.80
40374;DHT22;26079;45.958;12.492;2022-07-06T12:16:36;31.70;50.80
40374;DHT22;26079;45.958;12.492;2022-07-06T12:19:03;31.70;50.40
40374;DHT22;26079;45.958;12.492;2022-07-06T12:21:29;31.70;52.30
40374;DHT22;26079;45.958;12.492;2022-07-06T12:23:56;31.80;51.40
40374;DHT22;26079;45.958;12.492;2022-07-06T12:26:24;31.80;52.00
40374;DHT22;26079;45.958;12.492;2022-07-06T12:29:05;31.90;50.60
40374;DHT22;26079;45.958;12.492;2022-07-06T12:31:48;32.10;50.80
40374;DHT22;26079;45.958;12.492;2022-07-06T12:34:19;32.20;50.20
40374;DHT22;26079;45.958;12.492;2022-07-06T12:36:53;32.30;50.40
40374;DHT22;26079;45.958;12.492;2022-07-06T12:39:21;32.40;50.10
40374;DHT22;26079;45.958;12.492;2022-07-06T12:42:00;32.40;50.40
40374;DHT22;26079;45.958;12.492;2022-07-06T12:44:26;32.30;49.80
40374;DHT22;26079;45.958;12.492;2022-07-06T12:47:09;32.20;49.90
40374;DHT22;26079;45.958;12.492;2022-07-06T12:49:35;32.10;48.70
40374;DHT22;26079;45.958;12.492;2022-07-06T12:54:48;32.10;47.90
40374;DHT22;26079;45.958;12.492;2022-07-06T12:57:19;32.10;48.60
40374;DHT22;26079;45.958;12.492;2022-07-06T12:59:55;32.20;45.80
40374;DHT22;26079;45.958;12.492;2022-07-06T13:02:24;32.20;46.40
40374;DHT22;26079;45.958;12.492;2022-07-06T13:05:02;32.20;46.80
40374;DHT22;26079;45.958;12.492;2022-07-06T13:07:29;32.30;46.10
40374;DHT22;26079;45.958;12.492;2022-07-06T13:10:01;32.10;46.60
40374;DHT22;26079;45.958;12.492;2022-07-06T13:12:28;32.10;47.40
40374;DHT22;26079;45.958;12.492;2022-07-06T13:14:53;32.10;46.80
40374;DHT22;26079;45.958;12.492;2022-07-06T13:17:19;32.10;46.80
40374;DHT22;26079;45.958;12.492;2022-07-06T13:19:45;32.20;46.60
40374;DHT22;26079;45.958;12.492;2022-07-06T13:22:11;32.10;46.80
40374;DHT22;26079;45.958;12.492;2022-07-06T13:24:37;32.10;47.60
40374;DHT22;26079;45.958;12.492;2022-07-06T13:27:03;32.10;47.90
40374;DHT22;26079;45.958;12.492;2022-07-06T13:29:28;32.00;48.10
40374;DHT22;26079;45.958;12.492;2022-07-06T13:31:54;31.90;47.90
40374;DHT22;26079;45.958;12.492;2022-07-06T13:34:20;32.10;48.10
40374;DHT22;26079;45.958;12.492;2022-07-06T13:36:46;32.20;47.90
40374;DHT22;26079;45.958;12.492;2022-07-06T13:39:11;32.20;48.10
40374;DHT22;26079;45.958;12.492;2022-07-06T13:41:37;32.20;49.60
40374;DHT22;26079;45.958;12.492;2022-07-06T13:44:03;32.20;49.10
40374;DHT22;26079;45.958;12.492;2022-07-06T13:46:30;32.30;47.80
40374;DHT22;26079;45.958;12.492;2022-07-06T13:48:56;32.30;47.20
40374;DHT22;26079;45.958;12.492;2022-07-06T13:51:23;32.30;45.60
40374;DHT22;26079;45.958;12.492;2022-07-06T13:53:50;32.30;47.50
40374;DHT22;26079;45.958;12.492;2022-07-06T13:56:16;32.20;47.80
40374;DHT22;26079;45.958;12.492;2022-07-06T13:58:43;32.20;47.20
40374;DHT22;26079;45.958;12.492;2022-07-06T14:01:09;32.30;46.30
40374;DHT22;26079;45.958;12.492;2022-07-06T14:03:35;32.50;47.20
40374;DHT22;26079;45.958;12.492;2022-07-06T14:06:04;32.50;47.80
40374;DHT22;26079;45.958;12.492;2022-07-06T14:08:30;32.50;46.80
40374;DHT22;26079;45.958;12.492;2022-07-06T14:10:56;32.40;48.20
40374;DHT22;26079;45.958;12.492;2022-07-06T14:13:22;32.50;47.40
40374;DHT22;26079;45.958;12.492;2022-07-06T14:15:48;32.40;46.80
40374;DHT22;26079;45.958;12.492;2022-07-06T14:18:14;32.20;48.00
40374;DHT22;26079;45.958;12.492;2022-07-06T14:20:46;32.30;47.40
40374;DHT22;26079;45.958;12.492;2022-07-06T14:23:12;32.40;48.30
40374;DHT22;26079;45.958;12.492;2022-07-06T14:25:39;32.60;47.30
40374;DHT22;26079;45.958;12.492;2022-07-06T14:28:05;32.70;48.00
40374;DHT22;26079;45.958;12.492;2022-07-06T14:30:32;32.50;47.00
40374;DHT22;26079;45.958;12.492;2022-07-06T14:32:58;32.30;47.70
40374;DHT22;26079;45.958;12.492;2022-07-06T14:35:24;32.30;47.70
40374;DHT22;26079;45.958;12.492;2022-07-06T14:37:50;32.40;47.30
40374;DHT22;26079;45.958;12.492;2022-07-06T14:40:16;32.30;46.90
40374;DHT22;26079;45.958;12.492;2022-07-06T14:42:42;32.40;46.50
40374;DHT22;26079;45.958;12.492;2022-07-06T14:45:08;32.40;46.50
40374;DHT22;26079;45.958;12.492;2022-07-06T14:47:34;32.50;45.80
40374;DHT22;26079;45.958;12.492;2022-07-06T14:50:02;32.60;46.50
40374;DHT22;26079;45.958;12.492;2022-07-06T14:52:28;32.60;46.40
40374;DHT22;26079;45.958;12.492;2022-07-06T14:54:54;32.50;45.90
40374;DHT22;26079;45.958;12.492;2022-07-06T14:57:19;32.60;46.20
40374;DHT22;26079;45.958;12.492;2022-07-06T14:59:45;32.40;47.10
40374;DHT22;26079;45.958;12.492;2022-07-06T15:02:11;32.60;45.60
40374;DHT22;26079;45.958;12.492;2022-07-06T15:04:37;32.60;46.50
40374;DHT22;26079;45.958;12.492;2022-07-06T15:07:02;32.80;45.90
40374;DHT22;26079;45.958;12.492;2022-07-06T15:09:28;33.10;44.70
40374;DHT22;26079;45.958;12.492;2022-07-06T15:11:56;33.00;45.30
40374;DHT22;26079;45.958;12.492;2022-07-06T15:14:22;32.90;44.90
40374;DHT22;26079;45.958;12.492;2022-07-06T15:16:48;32.90;45.70
40374;DHT22;26079;45.958;12.492;2022-07-06T15:19:14;33.10;45.90
40374;DHT22;26079;45.958;12.492;2022-07-06T15:21:40;33.30;45.80
40374;DHT22;26079;45.958;12.492;2022-07-06T15:24:06;33.30;46.60
40374;DHT22;26079;45.958;12.492;2022-07-06T15:26:32;33.30;46.60
40374;DHT22;26079;45.958;12.492;2022-07-06T15:28:58;33.30;47.00
40374;DHT22;26079;45.958;12.492;2022-07-06T15:31:24;33.30;45.80
40374;DHT22;26079;45.958;12.492;2022-07-06T15:33:49;33.40;45.90
40374;DHT22;26079;45.958;12.492;2022-07-06T15:36:15;32.90;47.60
40374;DHT22;26079;45.958;12.492;2022-07-06T15:38:41;32.60;48.20